sensor_id;sensor_type;location;lat;lon;timestamp;temperature;humidity
770;DHT22;368;48.698;9.116;2023-03-01T00:02:22;-1.60;99.90
770;DHT22;368;48.698;9.116;2023-03-01T00:04:48;-1.60;99.90
770;DHT22;368;48.698;9.116;2023-03-01T00:07:15;-1.50;99.90
770;DHT22;368;48.698;9.116;2023-03-01T00:09:42;-1.60;99.90
770;DHT22;368;48.698;9.116;2023-03-01T00:12:11;-1.70;99.90
770;DHT22;368;48.698;9.116;2023-03-01T00:14:38;-1.80;99.90
770;DHT22;368;48.698;9.116;2023-03-01T00:17:05;-1.90;99.90
770;DHT22;368;48.698;9.116;2023-03-01T00:19:34;-1.90;99.90
770;DHT22;368;48.698;9.116;2023-03-01T00:22:02;-1.90;99.90
770;DHT22;368;48.698;9.116;2023-03-01T00:24:28;-2.00;99.90
770;DHT22;368;48.698;9.116;2023-03-01T00:26:55;-1.90;99.90
770;DHT22;368;48.698;9.116;2023-03-01T00:29:23;-1.90;99.90
770;DHT22;368;48.698;9.116;2023-03-01T00:31:50;-1.90;99.90
770;DHT22;368;48.698;9.116;2023-03-01T00:34:17;-2.20;99.90
770;DHT22;368;48.698;9.116;2023-03-01T00:36:45;-2.00;99.90
770;DHT22;368;48.698;9.116;2023-03-01T00:39:13;-1.80;99.90
770;DHT22;368;48.698;9.116;2023-03-01T00:41:41;-1.90;99.90
770;DHT22;368;48.698;9.116;2023-03-01T00:44:08;-1.80;99.90
770;DHT22;368;48.698;9.116;2023-03-01T00:46:35;-1.70;99.90
770;DHT22;368;48.698;9.116;2023-03-01T00:49:02;-1.60;99.90
770;DHT22;368;48.698;9.116;2023-03-01T00:51:30;-1.60;99.90
770;DHT22;368;48.698;9.116;2023-03-01T00:53:59;-1.50;99.90
770;DHT22;368;48.698;9.116;2023-03-01T00:56:28;-1.40;99.90
770;DHT22;368;48.698;9.116;2023-03-01T00:58:55;-1.60;99.90
770;DHT22;368;48.698;9.116;2023-03-01T01:01:24;-1.50;99.90
770;DHT22;368;48.698;9.116;2023-03-01T01:03:54;-1.50;99.90
770;DHT22;368;48.698;9.116;2023-03-01T01:06:22;-1.50;99.90
770;DHT22;368;48.698;9.116;2023-03-01T01:08:51;-1.40;99.90
770;DHT22;368;48.698;9.116;2023-03-01T01:11:19;-1.50;99.90
770;DHT22;368;48.698;9.116;2023-03-01T01:13:47;-1.40;99.90
770;DHT22;368;48.698;9.116;2023-03-01T01:16:16;-1.50;99.90
770;DHT22;368;48.698;9.116;2023-03-01T01:18:43;-1.40;99.90
770;DHT22;368;48.698;9.116;2023-03-01T01:21:12;-1.50;99.90
770;DHT22;368;48.698;9.116;2023-03-01T01:23:40;-1.70;99.90
770;DHT22;368;48.698;9.116;2023-03-01T01:26:09;-1.50;99.90
770;DHT22;368;48.698;9.116;2023-03-01T01:28:38;-1.50;99.90
770;DHT22;368;48.698;9.116;2023-03-01T01:31:06;-1.60;99.90
770;DHT22;368;48.698;9.116;2023-03-01T01:33:33;-1.50;99.90
770;DHT22;368;48.698;9.116;2023-03-01T01:36:00;-1.50;99.90
770;DHT22;368;48.698;9.116;2023-03-01T01:38:27;-1.50;99.90
770;DHT22;368;48.698;9.116;2023-03-01T01:40:53;-1.80;99.90
770;DHT22;368;48.698;9.116;2023-03-01T01:43:22;-1.60;99.90
770;DHT22;368;48.698;9.116;2023-03-01T01:45:52;-1.60;99.90
770;DHT22;368;48.698;9.116;2023-03-01T01:48:24;-1.60;99.90
770;DHT22;368;48.698;9.116;2023-03-01T01:51:09;-1.60;99.90
770;DHT22;368;48.698;9.116;2023-03-01T01:53:38;-1.60;99.90
770;DHT22;368;48.698;9.116;2023-03-01T01:56:08;-1.80;99.90
770;DHT22;368;48.698;9.116;2023-03-01T01:58:36;-1.60;99.90
770;DHT22;368;48.698;9.116;2023-03-01T02:01:05;-1.70;99.90
770;DHT22;368;48.698;9.116;2023-03-01T02:03:34;-1.70;99.90
770;DHT22;368;48.698;9.116;2023-03-01T02:06:12;-1.70;99.90
770;DHT22;368;48.698;9.116;2023-03-01T02:08:42;-1.80;99.90
770;DHT22;368;48.698;9.116;2023-03-01T02:11:10;-1.60;99.90
770;DHT22;368;48.698;9.116;2023-03-01T02:13:40;-1.50;99.90
770;DHT22;368;48.698;9.116;2023-03-01T02:16:10;-1.40;99.90
770;DHT22;368;48.698;9.116;2023-03-01T02:18:38;-1.50;99.90
770;DHT22;368;48.698;9.116;2023-03-01T02:21:17;-1.30;99.90
770;DHT22;368;48.698;9.116;2023-03-01T02:23:47;-1.20;99.90
770;DHT22;368;48.698;9.116;2023-03-01T02:26:20;-1.00;99.90
770;DHT22;368;48.698;9.116;2023-03-01T02:28:50;-1.10;99.90
770;DHT22;368;48.698;9.116;2023-03-01T02:31:20;-1.20;99.90
770;DHT22;368;48.698;9.116;2023-03-01T02:34:05;-1.20;99.90
770;DHT22;368;48.698;9.116;2023-03-01T02:36:36;-1.10;99.90
770;DHT22;368;48.698;9.116;2023-03-01T02:39:05;-1.10;99.90
770;DHT22;368;48.698;9.116;2023-03-01T02:41:36;-1.20;99.90
770;DHT22;368;48.698;9.116;2023-03-01T02:44:05;-0.90;99.90
770;DHT22;368;48.698;9.116;2023-03-01T02:46:33;-0.90;99.90
770;DHT22;368;48.698;9.116;2023-03-01T02:48:59;-1.20;99.90
770;DHT22;368;48.698;9.116;2023-03-01T02:51:46;-0.90;99.90
770;DHT22;368;48.698;9.116;2023-03-01T02:54:21;-0.90;99.90
770;DHT22;368;48.698;9.116;2023-03-01T02:56:51;-1.00;99.90
770;DHT22;368;48.698;9.116;2023-03-01T02:59:21;-1.00;99.90
770;DHT22;368;48.698;9.116;2023-03-01T03:01:48;-1.00;99.90
770;DHT22;368;48.698;9.116;2023-03-01T03:04:17;-0.90;99.90
770;DHT22;368;48.698;9.116;2023-03-01T03:06:47;-0.90;99.90
770;DHT22;368;48.698;9.116;2023-03-01T03:09:15;-1.10;99.90
770;DHT22;368;48.698;9.116;2023-03-01T03:11:42;-1.10;99.90
770;DHT22;368;48.698;9.116;2023-03-01T03:14:10;-1.10;99.90
770;DHT22;368;48.698;9.116;2023-03-01T03:16:41;-0.90;99.90
770;DHT22;368;48.698;9.116;2023-03-01T03:19:09;-0.80;99.90
770;DHT22;368;48.698;9.116;2023-03-01T03:21:36;-1.00;99.90
770;DHT22;368;48.698;9.116;2023-03-01T03:24:03;-0.90;99.90
770;DHT22;368;48.698;9.116;2023-03-01T03:26:30;-0.90;99.90
770;DHT22;368;48.698;9.116;2023-03-01T03:28:57;-1.00;99.90
770;DHT22;368;48.698;9.116;2023-03-01T03:31:24;-0.90;99.90
770;DHT22;368;48.698;9.116;2023-03-01T03:33:52;-1.10;99.90
770;DHT22;368;48.698;9.116;2023-03-01T03:36:22;-1.00;99.90
770;DHT22;368;48.698;9.116;2023-03-01T03:38:49;-1.00;99.90
770;DHT22;368;48.698;9.116;2023-03-01T03:41:16;-0.90;99.90
770;DHT22;368;48.698;9.116;2023-03-01T03:43:44;-1.00;99.90
770;DHT22;368;48.698;9.116;2023-03-01T03:46:11;-0.90;99.90
770;DHT22;368;48.698;9.116;2023-03-01T03:48:39;-0.90;99.90
770;DHT22;368;48.698;9.116;2023-03-01T03:51:10;-0.90;99.90
770;DHT22;368;48.698;9.116;2023-03-01T03:53:36;-1.00;99.90
770;DHT22;368;48.698;9.116;2023-03-01T03:56:04;-1.10;99.90
770;DHT22;368;48.698;9.116;2023-03-01T03:58:31;-0.80;99.90
770;DHT22;368;48.698;9.116;2023-03-01T04:00:58;-0.70;99.90
770;DHT22;368;48.698;9.116;2023-03-01T04:03:28;-0.80;99.90
770;DHT22;368;48.698;9.116;2023-03-01T04:05:57;-0.70;99.90
770;DHT22;368;48.698;9.116;2023-03-01T04:08:26;-0.80;99.90
770;DHT22;368;48.698;9.116;2023-03-01T04:10:57;-0.90;99.90
770;DHT22;368;48.698;9.116;2023-03-01T04:13:25;-0.80;99.90
770;DHT22;368;48.698;9.116;2023-03-01T04:15:53;-0.70;99.90
770;DHT22;368;48.698;9.116;2023-03-01T04:18:22;-0.80;99.90
770;DHT22;368;48.698;9.116;2023-03-01T04:20:50;-0.90;99.90
770;DHT22;368;48.698;9.116;2023-03-01T04:23:21;-0.80;99.90
770;DHT22;368;48.698;9.116;2023-03-01T04:25:50;-0.80;99.90
770;DHT22;368;48.698;9.116;2023-03-01T04:28:22;-0.60;99.90
770;DHT22;368;48.698;9.116;2023-03-01T04:30:51;-0.70;99.90
770;DHT22;368;48.698;9.116;2023-03-01T04:33:18;-0.80;99.90
770;DHT22;368;48.698;9.116;2023-03-01T04:35:45;-0.90;99.90
770;DHT22;368;48.698;9.116;2023-03-01T04:38:14;-0.80;99.90
770;DHT22;368;48.698;9.116;2023-03-01T04:40:41;-0.80;99.90
770;DHT22;368;48.698;9.116;2023-03-01T04:43:10;-0.90;99.90
770;DHT22;368;48.698;9.116;2023-03-01T04:45:37;-0.60;99.90
770;DHT22;368;48.698;9.116;2023-03-01T04:48:04;-0.60;99.90
770;DHT22;368;48.698;9.116;2023-03-01T04:50:32;-0.50;99.90
770;DHT22;368;48.698;9.116;2023-03-01T04:52:58;-0.60;99.90
770;DHT22;368;48.698;9.116;2023-03-01T04:55:26;-0.60;99.90
770;DHT22;368;48.698;9.116;2023-03-01T04:57:53;-0.50;99.90
770;DHT22;368;48.698;9.116;2023-03-01T05:00:22;-0.30;99.90
770;DHT22;368;48.698;9.116;2023-03-01T05:02:51;-0.40;99.90
770;DHT22;368;48.698;9.116;2023-03-01T05:05:24;-0.50;99.90
770;DHT22;368;48.698;9.116;2023-03-01T05:07:53;-0.60;99.90
770;DHT22;368;48.698;9.116;2023-03-01T05:10:20;-0.50;99.90
770;DHT22;368;48.698;9.116;2023-03-01T05:12:47;-0.30;99.90
770;DHT22;368;48.698;9.116;2023-03-01T05:15:14;-0.70;99.90
770;DHT22;368;48.698;9.116;2023-03-01T05:17:42;-0.60;99.90
770;DHT22;368;48.698;9.116;2023-03-01T05:20:10;-0.60;99.90
770;DHT22;368;48.698;9.116;2023-03-01T05:22:37;-0.50;99.90
770;DHT22;368;48.698;9.116;2023-03-01T05:25:04;-0.30;99.90
770;DHT22;368;48.698;9.116;2023-03-01T05:27:32;-0.50;99.90
770;DHT22;368;48.698;9.116;2023-03-01T05:29:59;-0.70;99.90
770;DHT22;368;48.698;9.116;2023-03-01T05:32:41;-0.60;99.90
770;DHT22;368;48.698;9.116;2023-03-01T05:35:11;-0.70;99.90
770;DHT22;368;48.698;9.116;2023-03-01T05:37:40;-0.60;99.90
770;DHT22;368;48.698;9.116;2023-03-01T05:40:09;-0.60;99.90
770;DHT22;368;48.698;9.116;2023-03-01T05:42:42;-0.60;99.90
770;DHT22;368;48.698;9.116;2023-03-01T05:45:09;-0.50;99.90
770;DHT22;368;48.698;9.116;2023-03-01T05:47:37;-0.30;99.90
770;DHT22;368;48.698;9.116;2023-03-01T05:50:07;-0.50;99.90
770;DHT22;368;48.698;9.116;2023-03-01T05:52:34;-0.40;99.90
770;DHT22;368;48.698;9.116;2023-03-01T05:55:01;-0.30;99.90
770;DHT22;368;48.698;9.116;2023-03-01T05:57:28;-0.20;99.90
770;DHT22;368;48.698;9.116;2023-03-01T05:59:55;-0.70;99.90
770;DHT22;368;48.698;9.116;2023-03-01T06:02:22;-0.40;99.90
770;DHT22;368;48.698;9.116;2023-03-01T06:04:48;-0.70;99.90
770;DHT22;368;48.698;9.116;2023-03-01T06:07:17;-0.80;99.90
770;DHT22;368;48.698;9.116;2023-03-01T06:09:43;-0.70;99.90
770;DHT22;368;48.698;9.116;2023-03-01T06:12:10;-0.40;99.90
770;DHT22;368;48.698;9.116;2023-03-01T06:14:37;-0.50;99.90
770;DHT22;368;48.698;9.116;2023-03-01T06:17:04;-0.70;99.90
770;DHT22;368;48.698;9.116;2023-03-01T06:19:31;-0.50;99.90
770;DHT22;368;48.698;9.116;2023-03-01T06:21:58;-0.30;99.90
770;DHT22;368;48.698;9.116;2023-03-01T06:24:26;-0.50;99.90
770;DHT22;368;48.698;9.116;2023-03-01T06:26:54;-0.20;99.90
770;DHT22;368;48.698;9.116;2023-03-01T06:29:21;-0.20;99.90
770;DHT22;368;48.698;9.116;2023-03-01T06:31:48;0.10;99.90
770;DHT22;368;48.698;9.116;2023-03-01T06:34:15;-0.10;99.90
770;DHT22;368;48.698;9.116;2023-03-01T06:36:42;-0.40;99.90
770;DHT22;368;48.698;9.116;2023-03-01T06:39:09;-0.30;99.90
770;DHT22;368;48.698;9.116;2023-03-01T06:41:37;-0.30;99.90
770;DHT22;368;48.698;9.116;2023-03-01T06:44:04;-0.10;99.90
770;DHT22;368;48.698;9.116;2023-03-01T06:46:31;-0.20;99.90
770;DHT22;368;48.698;9.116;2023-03-01T06:48:58;0.10;99.90
770;DHT22;368;48.698;9.116;2023-03-01T06:51:25;-0.20;99.90
770;DHT22;368;48.698;9.116;2023-03-01T06:53:52;0.00;99.90
770;DHT22;368;48.698;9.116;2023-03-01T06:56:19;0.20;99.90
770;DHT22;368;48.698;9.116;2023-03-01T06:58:47;0.10;99.90
770;DHT22;368;48.698;9.116;2023-03-01T07:01:14;0.10;99.90
770;DHT22;368;48.698;9.116;2023-03-01T07:03:41;0.10;99.90
770;DHT22;368;48.698;9.116;2023-03-01T07:06:09;0.40;99.90
770;DHT22;368;48.698;9.116;2023-03-01T07:08:36;0.50;99.90
770;DHT22;368;48.698;9.116;2023-03-01T07:11:03;0.30;99.90
770;DHT22;368;48.698;9.116;2023-03-01T07:13:31;0.20;99.90
770;DHT22;368;48.698;9.116;2023-03-01T07:15:59;0.40;99.90
770;DHT22;368;48.698;9.116;2023-03-01T07:18:26;0.10;99.90
770;DHT22;368;48.698;9.116;2023-03-01T07:20:53;0.30;99.90
770;DHT22;368;48.698;9.116;2023-03-01T07:23:20;0.40;99.90
770;DHT22;368;48.698;9.116;2023-03-01T07:25:51;0.40;99.90
770;DHT22;368;48.698;9.116;2023-03-01T07:28:18;0.10;99.90
770;DHT22;368;48.698;9.116;2023-03-01T07:30:45;0.20;99.90
770;DHT22;368;48.698;9.116;2023-03-01T07:33:13;0.20;99.90
770;DHT22;368;48.698;9.116;2023-03-01T07:35:40;0.30;99.90
770;DHT22;368;48.698;9.116;2023-03-01T07:38:07;0.40;99.90
770;DHT22;368;48.698;9.116;2023-03-01T07:40:34;0.30;99.90
770;DHT22;368;48.698;9.116;2023-03-01T07:43:01;0.60;99.90
770;DHT22;368;48.698;9.116;2023-03-01T07:45:28;0.50;99.90
770;DHT22;368;48.698;9.116;2023-03-01T07:47:56;0.80;99.90
770;DHT22;368;48.698;9.116;2023-03-01T07:50:24;0.60;99.90
770;DHT22;368;48.698;9.116;2023-03-01T07:52:51;0.70;99.90
770;DHT22;368;48.698;9.116;2023-03-01T07:55:17;0.90;99.90
770;DHT22;368;48.698;9.116;2023-03-01T07:57:45;1.00;99.90
770;DHT22;368;48.698;9.116;2023-03-01T08:00:13;0.90;99.90
770;DHT22;368;48.698;9.116;2023-03-01T08:02:40;0.90;99.90
770;DHT22;368;48.698;9.116;2023-03-01T08:05:07;1.10;99.90
770;DHT22;368;48.698;9.116;2023-03-01T08:07:37;1.00;99.90
770;DHT22;368;48.698;9.116;2023-03-01T08:10:04;1.00;99.90
770;DHT22;368;48.698;9.116;2023-03-01T08:12:32;1.60;99.90
770;DHT22;368;48.698;9.116;2023-03-01T08:14:59;1.50;99.90
770;DHT22;368;48.698;9.116;2023-03-01T08:17:25;1.40;99.90
770;DHT22;368;48.698;9.116;2023-03-01T08:19:52;1.60;99.90
770;DHT22;368;48.698;9.116;2023-03-01T08:22:19;1.80;99.90
770;DHT22;368;48.698;9.116;2023-03-01T08:24:47;2.00;99.90
770;DHT22;368;48.698;9.116;2023-03-01T08:27:15;2.10;99.90
770;DHT22;368;48.698;9.116;2023-03-01T08:29:42;2.30;99.80
770;DHT22;368;48.698;9.116;2023-03-01T08:32:09;2.30;99.20
770;DHT22;368;48.698;9.116;2023-03-01T08:34:36;2.40;98.80
770;DHT22;368;48.698;9.116;2023-03-01T08:37:03;2.10;99.10
770;DHT22;368;48.698;9.116;2023-03-01T08:39:30;2.40;99.20
770;DHT22;368;48.698;9.116;2023-03-01T08:41:58;2.60;98.40
770;DHT22;368;48.698;9.116;2023-03-01T08:44:25;2.30;98.80
770;DHT22;368;48.698;9.116;2023-03-01T08:46:52;2.90;98.40
770;DHT22;368;48.698;9.116;2023-03-01T08:49:21;2.90;97.90
770;DHT22;368;48.698;9.116;2023-03-01T08:51:48;3.00;97.90
770;DHT22;368;48.698;9.116;2023-03-01T08:54:16;3.00;97.70
770;DHT22;368;48.698;9.116;2023-03-01T08:56:44;2.90;97.60
770;DHT22;368;48.698;9.116;2023-03-01T08:59:14;2.90;97.80
770;DHT22;368;48.698;9.116;2023-03-01T09:01:41;2.70;97.70
770;DHT22;368;48.698;9.116;2023-03-01T09:04:09;3.20;97.50
770;DHT22;368;48.698;9.116;2023-03-01T09:06:36;3.00;97.70
770;DHT22;368;48.698;9.116;2023-03-01T09:09:04;3.70;96.40
770;DHT22;368;48.698;9.116;2023-03-01T09:11:31;4.50;95.60
770;DHT22;368;48.698;9.116;2023-03-01T09:13:59;4.60;94.60
770;DHT22;368;48.698;9.116;2023-03-01T09:16:27;3.70;94.50
770;DHT22;368;48.698;9.116;2023-03-01T09:18:55;3.20;96.00
770;DHT22;368;48.698;9.116;2023-03-01T09:21:23;2.90;96.50
770;DHT22;368;48.698;9.116;2023-03-01T09:23:50;3.00;96.60
770;DHT22;368;48.698;9.116;2023-03-01T09:26:18;3.10;96.30
770;DHT22;368;48.698;9.116;2023-03-01T09:28:47;3.20;96.40
770;DHT22;368;48.698;9.116;2023-03-01T09:31:15;3.20;96.20
770;DHT22;368;48.698;9.116;2023-03-01T09:33:45;3.20;96.70
770;DHT22;368;48.698;9.116;2023-03-01T09:36:17;3.10;96.80
770;DHT22;368;48.698;9.116;2023-03-01T09:38:44;3.60;96.40
770;DHT22;368;48.698;9.116;2023-03-01T09:41:23;3.60;95.60
770;DHT22;368;48.698;9.116;2023-03-01T09:43:55;4.10;94.70
770;DHT22;368;48.698;9.116;2023-03-01T09:46:25;5.40;93.60
770;DHT22;368;48.698;9.116;2023-03-01T09:48:57;6.40;91.20
770;DHT22;368;48.698;9.116;2023-03-01T09:51:29;7.70;90.30
770;DHT22;368;48.698;9.116;2023-03-01T09:53:57;8.70;87.20
770;DHT22;368;48.698;9.116;2023-03-01T09:56:30;9.30;80.30
770;DHT22;368;48.698;9.116;2023-03-01T09:59:06;8.90;79.50
770;DHT22;368;48.698;9.116;2023-03-01T10:01:43;9.80;77.10
770;DHT22;368;48.698;9.116;2023-03-01T10:04:28;10.00;74.60
770;DHT22;368;48.698;9.116;2023-03-01T10:07:11;10.80;73.20
770;DHT22;368;48.698;9.116;2023-03-01T10:09:40;10.70;71.60
770;DHT22;368;48.698;9.116;2023-03-01T10:12:11;9.90;74.40
770;DHT22;368;48.698;9.116;2023-03-01T10:14:43;9.00;75.10
770;DHT22;368;48.698;9.116;2023-03-01T10:17:20;8.70;77.60
770;DHT22;368;48.698;9.116;2023-03-01T10:19:52;9.50;77.60
770;DHT22;368;48.698;9.116;2023-03-01T10:22:20;10.60;72.80
770;DHT22;368;48.698;9.116;2023-03-01T10:24:48;9.50;73.30
770;DHT22;368;48.698;9.116;2023-03-01T10:27:19;10.40;74.10
770;DHT22;368;48.698;9.116;2023-03-01T10:29:53;9.90;73.30
770;DHT22;368;48.698;9.116;2023-03-01T10:32:22;11.00;70.90
770;DHT22;368;48.698;9.116;2023-03-01T10:34:48;11.50;67.70
770;DHT22;368;48.698;9.116;2023-03-01T10:37:18;10.40;70.40
770;DHT22;368;48.698;9.116;2023-03-01T10:39:57;10.90;68.90
770;DHT22;368;48.698;9.116;2023-03-01T10:42:30;10.10;69.30
770;DHT22;368;48.698;9.116;2023-03-01T10:44:58;10.10;69.40
770;DHT22;368;48.698;9.116;2023-03-01T10:47:40;10.40;71.50
770;DHT22;368;48.698;9.116;2023-03-01T10:50:23;10.70;69.60
770;DHT22;368;48.698;9.116;2023-03-01T10:52:59;9.10;72.00
770;DHT22;368;48.698;9.116;2023-03-01T10:55:30;10.80;70.40
770;DHT22;368;48.698;9.116;2023-03-01T10:58:08;11.80;67.10
770;DHT22;368;48.698;9.116;2023-03-01T11:00:46;12.50;67.20
770;DHT22;368;48.698;9.116;2023-03-01T11:03:15;13.20;64.70
770;DHT22;368;48.698;9.116;2023-03-01T11:05:58;12.50;64.30
770;DHT22;368;48.698;9.116;2023-03-01T11:08:43;13.20;62.50
770;DHT22;368;48.698;9.116;2023-03-01T11:11:29;14.00;62.40
770;DHT22;368;48.698;9.116;2023-03-01T11:13:59;12.90;63.60
770;DHT22;368;48.698;9.116;2023-03-01T11:16:32;11.80;65.50
770;DHT22;368;48.698;9.116;2023-03-01T11:19:14;13.60;63.50
770;DHT22;368;48.698;9.116;2023-03-01T11:21:43;13.50;61.70
770;DHT22;368;48.698;9.116;2023-03-01T11:24:15;11.40;63.90
770;DHT22;368;48.698;9.116;2023-03-01T11:26:47;11.20;66.10
770;DHT22;368;48.698;9.116;2023-03-01T11:29:26;13.10;63.40
770;DHT22;368;48.698;9.116;2023-03-01T11:31:55;13.00;58.10
770;DHT22;368;48.698;9.116;2023-03-01T11:34:34;14.00;60.40
770;DHT22;368;48.698;9.116;2023-03-01T11:37:10;13.90;61.90
770;DHT22;368;48.698;9.116;2023-03-01T11:39:46;14.40;59.60
770;DHT22;368;48.698;9.116;2023-03-01T11:42:19;14.60;58.90
770;DHT22;368;48.698;9.116;2023-03-01T11:44:49;12.90;59.20
770;DHT22;368;48.698;9.116;2023-03-01T11:47:29;13.40;57.60
770;DHT22;368;48.698;9.116;2023-03-01T11:50:06;13.10;60.00
770;DHT22;368;48.698;9.116;2023-03-01T11:52:40;13.30;60.50
770;DHT22;368;48.698;9.116;2023-03-01T11:55:26;13.60;59.90
770;DHT22;368;48.698;9.116;2023-03-01T11:58:18;14.50;59.10
770;DHT22;368;48.698;9.116;2023-03-01T12:01:26;13.60;59.80
770;DHT22;368;48.698;9.116;2023-03-01T12:04:17;14.90;58.10
770;DHT22;368;48.698;9.116;2023-03-01T12:06:56;14.70;58.00
770;DHT22;368;48.698;9.116;2023-03-01T12:09:35;14.50;57.00
770;DHT22;368;48.698;9.116;2023-03-01T12:12:22;12.70;59.90
770;DHT22;368;48.698;9.116;2023-03-01T12:15:01;14.10;58.50
770;DHT22;368;48.698;9.116;2023-03-01T12:17:45;14.30;55.20
770;DHT22;368;48.698;9.116;2023-03-01T12:20:20;12.50;58.40
770;DHT22;368;48.698;9.116;2023-03-01T12:23:13;12.20;59.90
770;DHT22;368;48.698;9.116;2023-03-01T12:25:46;13.90;58.40
770;DHT22;368;48.698;9.116;2023-03-01T12:28:30;14.70;57.10
770;DHT22;368;48.698;9.116;2023-03-01T12:35:03;15.40;54.90
770;DHT22;368;48.698;9.116;2023-03-01T12:37:39;14.60;56.80
770;DHT22;368;48.698;9.116;2023-03-01T12:40:40;14.90;55.90
770;DHT22;368;48.698;9.116;2023-03-01T12:43:22;15.00;55.70
770;DHT22;368;48.698;9.116;2023-03-01T12:46:14;14.20;56.80
770;DHT22;368;48.698;9.116;2023-03-01T12:48:47;13.10;58.40
770;DHT22;368;48.698;9.116;2023-03-01T12:51:23;13.90;57.40
770;DHT22;368;48.698;9.116;2023-03-01T12:53:53;14.20;57.00
770;DHT22;368;48.698;9.116;2023-03-01T12:56:22;13.50;58.20
770;DHT22;368;48.698;9.116;2023-03-01T12:59:00;12.70;59.20
770;DHT22;368;48.698;9.116;2023-03-01T13:01:40;13.90;57.70
770;DHT22;368;48.698;9.116;2023-03-01T13:04:29;15.70;56.10
770;DHT22;368;48.698;9.116;2023-03-01T13:07:10;14.50;56.70
770;DHT22;368;48.698;9.116;2023-03-01T13:09:43;15.20;57.90
770;DHT22;368;48.698;9.116;2023-03-01T13:12:44;15.30;56.50
770;DHT22;368;48.698;9.116;2023-03-01T13:15:31;14.00;56.60
770;DHT22;368;48.698;9.116;2023-03-01T13:18:00;15.50;56.00
770;DHT22;368;48.698;9.116;2023-03-01T13:20:30;15.20;54.80
770;DHT22;368;48.698;9.116;2023-03-01T13:23:07;15.40;55.90
770;DHT22;368;48.698;9.116;2023-03-01T13:26:06;15.40;55.00
770;DHT22;368;48.698;9.116;2023-03-01T13:34:57;15.70;54.00
770;DHT22;368;48.698;9.116;2023-03-01T13:37:32;13.80;57.20
770;DHT22;368;48.698;9.116;2023-03-01T13:40:03;15.40;57.10
770;DHT22;368;48.698;9.116;2023-03-01T13:42:37;16.00;54.50
770;DHT22;368;48.698;9.116;2023-03-01T13:45:14;14.30;54.70
770;DHT22;368;48.698;9.116;2023-03-01T13:47:44;15.40;55.40
770;DHT22;368;48.698;9.116;2023-03-01T13:50:20;13.10;56.20
770;DHT22;368;48.698;9.116;2023-03-01T13:52:52;12.20;59.30
770;DHT22;368;48.698;9.116;2023-03-01T13:55:23;12.60;59.40
770;DHT22;368;48.698;9.116;2023-03-01T13:57:54;13.40;58.10
770;DHT22;368;48.698;9.116;2023-03-01T14:00:31;14.30;57.00
770;DHT22;368;48.698;9.116;2023-03-01T14:03:17;13.90;57.60
770;DHT22;368;48.698;9.116;2023-03-01T14:05:59;12.00;60.60
770;DHT22;368;48.698;9.116;2023-03-01T14:08:28;11.90;59.10
770;DHT22;368;48.698;9.116;2023-03-01T14:11:20;12.40;59.40
770;DHT22;368;48.698;9.116;2023-03-01T14:16:44;12.00;60.10
770;DHT22;368;48.698;9.116;2023-03-01T14:19:16;11.70;61.40
770;DHT22;368;48.698;9.116;2023-03-01T14:21:46;11.30;60.00
770;DHT22;368;48.698;9.116;2023-03-01T14:24:20;12.30;60.90
770;DHT22;368;48.698;9.116;2023-03-01T14:26:48;12.30;60.00
770;DHT22;368;48.698;9.116;2023-03-01T14:29:27;12.50;59.00
770;DHT22;368;48.698;9.116;2023-03-01T14:31:54;12.60;61.10
770;DHT22;368;48.698;9.116;2023-03-01T14:34:23;12.30;60.10
770;DHT22;368;48.698;9.116;2023-03-01T14:36:52;12.10;61.00
770;DHT22;368;48.698;9.116;2023-03-01T14:39:24;12.80;59.40
770;DHT22;368;48.698;9.116;2023-03-01T14:41:51;11.20;61.50
770;DHT22;368;48.698;9.116;2023-03-01T14:44:21;11.20;62.70
770;DHT22;368;48.698;9.116;2023-03-01T14:46:52;10.30;62.80
770;DHT22;368;48.698;9.116;2023-03-01T14:49:22;10.20;63.90
770;DHT22;368;48.698;9.116;2023-03-01T14:51:54;10.90;63.00
770;DHT22;368;48.698;9.116;2023-03-01T14:54:25;12.40;62.20
770;DHT22;368;48.698;9.116;2023-03-01T14:56:53;11.90;61.50
770;DHT22;368;48.698;9.116;2023-03-01T14:59:22;10.40;62.80
770;DHT22;368;48.698;9.116;2023-03-01T15:01:50;9.70;66.50
770;DHT22;368;48.698;9.116;2023-03-01T15:04:18;10.20;66.20
770;DHT22;368;48.698;9.116;2023-03-01T15:06:46;10.80;65.50
770;DHT22;368;48.698;9.116;2023-03-01T15:09:16;10.90;63.30
770;DHT22;368;48.698;9.116;2023-03-01T15:11:44;9.90;65.00
770;DHT22;368;48.698;9.116;2023-03-01T15:14:28;10.50;64.60
770;DHT22;368;48.698;9.116;2023-03-01T15:16:56;9.70;67.40
770;DHT22;368;48.698;9.116;2023-03-01T15:19:26;9.80;68.80
770;DHT22;368;48.698;9.116;2023-03-01T15:21:55;9.60;67.80
770;DHT22;368;48.698;9.116;2023-03-01T15:24:25;10.10;67.50
770;DHT22;368;48.698;9.116;2023-03-01T15:26:56;11.40;65.30
770;DHT22;368;48.698;9.116;2023-03-01T15:29:29;11.40;64.60
770;DHT22;368;48.698;9.116;2023-03-01T15:32:00;11.20;62.10
770;DHT22;368;48.698;9.116;2023-03-01T15:34:30;10.60;64.30
770;DHT22;368;48.698;9.116;2023-03-01T15:36:59;9.90;66.20
770;DHT22;368;48.698;9.116;2023-03-01T15:39:36;9.20;67.50
770;DHT22;368;48.698;9.116;2023-03-01T15:42:10;9.90;69.00
770;DHT22;368;48.698;9.116;2023-03-01T15:44:38;9.80;67.80
770;DHT22;368;48.698;9.116;2023-03-01T15:47:25;8.40;69.60
770;DHT22;368;48.698;9.116;2023-03-01T15:49:53;8.50;71.90
770;DHT22;368;48.698;9.116;2023-03-01T15:52:23;8.60;71.40
770;DHT22;368;48.698;9.116;2023-03-01T15:54:56;8.30;72.40
770;DHT22;368;48.698;9.116;2023-03-01T15:57:23;8.50;72.90
770;DHT22;368;48.698;9.116;2023-03-01T15:59:50;8.30;72.90
770;DHT22;368;48.698;9.116;2023-03-01T16:02:17;7.90;73.40
770;DHT22;368;48.698;9.116;2023-03-01T16:04:46;7.70;73.40
770;DHT22;368;48.698;9.116;2023-03-01T16:07:14;7.70;74.10
770;DHT22;368;48.698;9.116;2023-03-01T16:09:41;7.10;74.60
770;DHT22;368;48.698;9.116;2023-03-01T16:12:13;7.10;75.90
770;DHT22;368;48.698;9.116;2023-03-01T16:14:40;7.40;75.00
770;DHT22;368;48.698;9.116;2023-03-01T16:17:07;6.90;76.10
770;DHT22;368;48.698;9.116;2023-03-01T16:19:35;6.70;75.90
770;DHT22;368;48.698;9.116;2023-03-01T16:22:02;6.70;76.40
770;DHT22;368;48.698;9.116;2023-03-01T16:24:29;6.50;77.00
770;DHT22;368;48.698;9.116;2023-03-01T16:26:56;6.20;77.20
770;DHT22;368;48.698;9.116;2023-03-01T16:29:25;6.10;77.90
770;DHT22;368;48.698;9.116;2023-03-01T16:31:54;6.10;78.00
770;DHT22;368;48.698;9.116;2023-03-01T16:34:21;5.80;78.90
770;DHT22;368;48.698;9.116;2023-03-01T16:36:49;5.50;79.00
770;DHT22;368;48.698;9.116;2023-03-01T16:39:15;5.70;80.10
770;DHT22;368;48.698;9.116;2023-03-01T16:41:42;5.50;80.90
770;DHT22;368;48.698;9.116;2023-03-01T16:44:09;5.40;81.60
770;DHT22;368;48.698;9.116;2023-03-01T16:46:37;5.40;81.20
770;DHT22;368;48.698;9.116;2023-03-01T16:49:04;5.20;81.20
770;DHT22;368;48.698;9.116;2023-03-01T16:51:31;5.20;82.00
770;DHT22;368;48.698;9.116;2023-03-01T16:54:00;5.10;81.60
770;DHT22;368;48.698;9.116;2023-03-01T16:56:27;5.00;82.40
770;DHT22;368;48.698;9.116;2023-03-01T16:58:55;4.80;83.30
770;DHT22;368;48.698;9.116;2023-03-01T17:01:22;4.90;83.20
770;DHT22;368;48.698;9.116;2023-03-01T17:03:51;5.00;82.60
770;DHT22;368;48.698;9.116;2023-03-01T17:06:20;4.80;83.00
770;DHT22;368;48.698;9.116;2023-03-01T17:08:49;4.70;83.90
770;DHT22;368;48.698;9.116;2023-03-01T17:11:18;4.70;85.00
770;DHT22;368;48.698;9.116;2023-03-01T17:13:45;4.60;84.80
770;DHT22;368;48.698;9.116;2023-03-01T17:16:14;4.20;86.00